createdAt,value
2022-11-16T00:00:06.325Z,95320.28
2022-11-16T00:02:35.266Z,95321.09
2022-11-16T00:05:03.436Z,95321.63
2022-11-16T00:07:31.625Z,95324.78
2022-11-16T00:10:01.228Z,95326.06
2022-11-16T00:12:29.324Z,95318.72
2022-11-16T00:14:57.397Z,95314.22
2022-11-16T00:17:25.480Z,95321.09
2022-11-16T00:19:53.611Z,95317.94
2022-11-16T00:22:21.778Z,95314.28
2022-11-16T00:24:49.925Z,95308.50
2022-11-16T00:27:19.387Z,95308.75
2022-11-16T00:29:48.036Z,95306.94
2022-11-16T00:32:16.170Z,95297.91
2022-11-16T00:34:44.326Z,95303.47
2022-11-16T00:37:12.428Z,95303.69
2022-11-16T00:39:40.645Z,95294.44
2022-11-16T00:42:08.800Z,95283.06
2022-11-16T00:44:38.241Z,95279.22
2022-11-16T00:47:06.682Z,95281.53
2022-11-16T00:49:34.803Z,95281.50
2022-11-16T00:52:02.973Z,95281.53
2022-11-16T00:54:31.220Z,95268.28
2022-11-16T00:56:59.693Z,95266.19
2022-11-16T00:59:27.917Z,95258.78
2022-11-16T01:01:59.801Z,95266.97
2022-11-16T01:04:28.235Z,95279.84
2022-11-16T01:06:56.419Z,95279.91
2022-11-16T01:09:25.851Z,95285.19
2022-11-16T01:12:12.572Z,95290.94
2022-11-16T01:14:44.439Z,95279.84
2022-11-16T01:17:15.138Z,95277.22
2022-11-16T01:19:43.309Z,95270.84
2022-11-16T01:22:11.544Z,95268.19
2022-11-16T01:24:39.726Z,95273.00
2022-11-16T01:27:07.808Z,95267.97
2022-11-16T01:29:38.419Z,95266.38
2022-11-16T01:32:07.337Z,95260.53
2022-11-16T01:34:37.743Z,95265.56
2022-11-16T01:37:14.578Z,95258.22
2022-11-16T01:39:43.849Z,95263.44
2022-11-16T01:42:19.114Z,95270.06
2022-11-16T01:45:17.844Z,95261.31
2022-11-16T01:47:46.737Z,95267.06
2022-11-16T01:50:21.483Z,95262.63
2022-11-16T01:52:58.152Z,95260.97
2022-11-16T01:55:29.733Z,95263.38
2022-11-16T01:58:07.849Z,95264.44
2022-11-16T02:00:38.236Z,95267.34
2022-11-16T02:03:42.225Z,95263.13
2022-11-16T02:07:22.038Z,95255.44
2022-11-16T02:10:12.612Z,95252.56
2022-11-16T02:13:12.764Z,95255.44
2022-11-16T02:15:52.148Z,95253.63
2022-11-16T02:18:36.983Z,95261.56
2022-11-16T02:21:30.964Z,95247.56
2022-11-16T02:24:43.636Z,95260.97
2022-11-16T02:27:46.892Z,95248.34
2022-11-16T02:30:20.508Z,95245.50
2022-11-16T02:32:53.697Z,95252.31
2022-11-16T02:35:32.394Z,95244.16
2022-11-16T02:38:10.319Z,95239.41
2022-11-16T02:40:42.046Z,95236.25
2022-11-16T02:43:15.101Z,95240.75
2022-11-16T02:45:51.784Z,95241.78
2022-11-16T02:48:25.148Z,95238.34
2022-11-16T02:50:54.702Z,95244.66
2022-11-16T02:53:25.356Z,95240.97
2022-11-16T02:55:56.427Z,95241.78
2022-11-16T02:58:26.871Z,95236.53
2022-11-16T03:01:02.883Z,95237.31
2022-11-16T03:03:38.392Z,95236.00
2022-11-16T03:06:12.899Z,95233.63
2022-11-16T03:08:47.288Z,95235.22
2022-11-16T03:11:33.428Z,95234.72
2022-11-16T03:14:08.886Z,95226.53
2022-11-16T03:16:43.650Z,95225.94
2022-11-16T03:19:16.516Z,95216.41
2022-11-16T03:21:50.580Z,95224.91
2022-11-16T03:24:21.458Z,95220.13
2022-11-16T03:27:01.288Z,95210.66
2022-11-16T03:29:34.164Z,95201.97
2022-11-16T03:32:16.951Z,95206.44
2022-11-16T03:34:53.817Z,95198.25
2022-11-16T03:37:24.483Z,95191.19
2022-11-16T03:39:55.341Z,95194.31
2022-11-16T03:42:28.410Z,95202.81
2022-11-16T03:44:56.922Z,95205.19
2022-11-16T03:47:27.868Z,95221.28
2022-11-16T03:49:56.075Z,95231.09
2022-11-16T03:52:25.584Z,95235.59
2022-11-16T03:54:53.954Z,95242.47
2022-11-16T03:57:22.273Z,95261.72
2022-11-16T03:59:56.745Z,95261.69
2022-11-16T04:02:24.924Z,95261.44
2022-11-16T04:05:15.400Z,95264.53
2022-11-16T04:08:02.090Z,95251.88
2022-11-16T04:10:48.469Z,95262.44
2022-11-16T04:13:41.939Z,95262.47
2022-11-16T04:16:28.994Z,95257.72
2022-11-16T04:19:15.018Z,95254.03
2022-11-16T04:22:08.030Z,95242.38
2022-11-16T04:24:41.068Z,95255.06
2022-11-16T04:27:30.055Z,95255.09
2022-11-16T04:30:01.486Z,95261.69
2022-11-16T04:32:49.601Z,95265.34
2022-11-16T04:35:44.474Z,95264.63
2022-11-16T04:38:14.007Z,95262.25
2022-11-16T04:40:42.291Z,95259.31
2022-11-16T04:43:12.928Z,95254.91
2022-11-16T04:46:01.376Z,95269.84
2022-11-16T04:48:37.098Z,95257.59
2022-11-16T04:51:06.097Z,95242.84
2022-11-16T04:53:36.615Z,95244.75
2022-11-16T04:56:25.103Z,95251.66
2022-11-16T04:58:53.569Z,95255.38
2022-11-16T05:01:42.613Z,95251.69
2022-11-16T05:04:11.435Z,95257.78
2022-11-16T05:06:39.797Z,95254.34
2022-11-16T05:09:09.425Z,95257.81
2022-11-16T05:11:37.771Z,95259.41
2022-11-16T05:14:07.532Z,95248.31
2022-11-16T05:16:35.732Z,95257.31
2022-11-16T05:19:21.800Z,95253.34
2022-11-16T05:21:50.288Z,95266.84
2022-11-16T05:24:35.683Z,95265.25
2022-11-16T05:27:08.502Z,95268.16
2022-11-16T05:29:38.169Z,95264.44
2022-11-16T05:32:08.044Z,95265.78
2022-11-16T05:34:36.266Z,95258.91
2022-11-16T05:37:05.068Z,95264.72
2022-11-16T05:39:34.635Z,95265.56
2022-11-16T05:42:03.491Z,95267.69
2022-11-16T05:44:31.802Z,95277.41
2022-11-16T05:47:00.212Z,95274.53
2022-11-16T05:49:29.598Z,95280.84
2022-11-16T05:51:59.194Z,95284.28
2022-11-16T05:54:27.357Z,95266.56
2022-11-16T05:56:57.413Z,95277.69
2022-11-16T05:59:26.046Z,95280.31
2022-11-16T06:01:57.879Z,95280.59
2022-11-16T06:04:26.725Z,95284.00
2022-11-16T06:06:56.121Z,95277.88
2022-11-16T06:09:29.942Z,95277.59
2022-11-16T06:12:05.070Z,95274.38
2022-11-16T06:14:33.704Z,95286.25
2022-11-16T06:17:01.918Z,95284.06
2022-11-16T06:19:33.141Z,95292.22
2022-11-16T06:22:01.548Z,95293.47
2022-11-16T06:24:31.178Z,95299.53
2022-11-16T06:27:00.231Z,95303.25
2022-11-16T06:29:30.029Z,95299.78
2022-11-16T06:31:59.441Z,95309.28
2022-11-16T06:34:27.640Z,95312.41
2022-11-16T06:36:56.521Z,95314.97
2022-11-16T06:39:25.767Z,95311.00
2022-11-16T06:41:54.260Z,95313.38
2022-11-16T06:44:22.664Z,95326.84
2022-11-16T06:46:59.348Z,95320.19
2022-11-16T06:49:27.929Z,95329.13
2022-11-16T06:51:59.902Z,95330.16
2022-11-16T06:54:28.547Z,95336.50
2022-11-16T06:56:56.705Z,95333.31
2022-11-16T06:59:25.158Z,95338.03
2022-11-16T07:01:53.440Z,95338.31
2022-11-16T07:04:23.061Z,95339.09
2022-11-16T07:06:56.267Z,95343.81
2022-11-16T07:09:24.701Z,95345.22
2022-11-16T07:12:17.748Z,95346.25
2022-11-16T07:14:51.708Z,95345.22
2022-11-16T07:17:20.921Z,95351.22
2022-11-16T07:19:50.421Z,95348.25
2022-11-16T07:22:18.680Z,95347.75
2022-11-16T07:24:47.242Z,95360.97
2022-11-16T07:27:15.404Z,95361.47
2022-11-16T07:29:46.763Z,95359.66
2022-11-16T07:32:25.588Z,95362.06
2022-11-16T07:35:15.093Z,95362.25
2022-11-16T07:37:44.087Z,95359.09
2022-11-16T07:40:13.738Z,95358.88
2022-11-16T07:42:43.578Z,95367.81
2022-11-16T07:45:15.040Z,95362.03
2022-11-16T07:47:53.347Z,95367.53
2022-11-16T07:50:45.470Z,95378.91
2022-11-16T07:53:13.804Z,95376.53
2022-11-16T07:55:42.151Z,95372.00
2022-11-16T07:58:10.902Z,95377.56
2022-11-16T08:00:40.203Z,95381.88
2022-11-16T08:03:18.199Z,95379.22
2022-11-16T08:06:00.841Z,95391.44
2022-11-16T08:08:29.686Z,95387.75
2022-11-16T08:11:01.243Z,95389.56
2022-11-16T08:13:31.919Z,95383.03
2022-11-16T08:16:02.262Z,95381.97
2022-11-16T08:18:30.814Z,95381.25
2022-11-16T08:21:02.662Z,95376.19
2022-11-16T08:23:32.585Z,95379.84
2022-11-16T08:26:01.866Z,95379.34
2022-11-16T08:28:31.965Z,95377.28
2022-11-16T08:31:01.075Z,95377.78
2022-11-16T08:33:30.787Z,95382.03
2022-11-16T08:36:09.564Z,95381.25
2022-11-16T08:38:41.396Z,95383.91
2022-11-16T08:41:09.859Z,95383.66
2022-11-16T08:43:39.498Z,95382.03
2022-11-16T08:46:09.948Z,95394.22
2022-11-16T08:48:40.939Z,95389.00
2022-11-16T08:51:18.854Z,95394.22
2022-11-16T08:53:57.791Z,95402.63
2022-11-16T08:56:27.606Z,95399.75
2022-11-16T08:58:58.934Z,95396.84
2022-11-16T09:01:31.418Z,95393.41
2022-11-16T09:04:00.482Z,95385.03
2022-11-16T09:06:30.037Z,95390.41
2022-11-16T09:08:58.654Z,95392.59
2022-11-16T09:11:27.432Z,95392.13
2022-11-16T09:13:57.230Z,95393.25
2022-11-16T09:16:27.829Z,95392.53
2022-11-16T09:18:56.690Z,95386.00
2022-11-16T09:21:27.203Z,95387.34
2022-11-16T09:23:58.124Z,95382.63
2022-11-16T09:26:27.128Z,95385.81
2022-11-16T09:28:58.088Z,95388.78
2022-11-16T09:31:28.010Z,95388.81
2022-11-16T09:33:58.257Z,95391.53
2022-11-16T09:36:27.684Z,95389.41
2022-11-16T09:42:12.574Z,95395.81
2022-11-16T09:45:00.600Z,95404.00
2022-11-16T09:47:49.185Z,95405.13
2022-11-16T09:50:39.675Z,95410.16
2022-11-16T09:53:31.549Z,95410.66
2022-11-16T09:56:06.170Z,95403.53
2022-11-16T09:58:43.246Z,95403.78
2022-11-16T10:01:27.282Z,95399.00
2022-11-16T10:04:03.732Z,95409.34
2022-11-16T10:06:47.082Z,95405.38
2022-11-16T10:09:15.673Z,95412.00
2022-11-16T10:12:16.384Z,95407.22
2022-11-16T10:15:20.808Z,95404.00
2022-11-16T10:18:04.474Z,95414.09
2022-11-16T10:21:04.924Z,95410.09
2022-11-16T10:23:49.923Z,95402.69
2022-11-16T10:26:29.025Z,95393.94
2022-11-16T10:29:26.391Z,95398.16
2022-11-16T10:32:22.354Z,95380.69
2022-11-16T10:34:54.460Z,95391.53
2022-11-16T10:38:00.333Z,95380.44
2022-11-16T10:40:36.880Z,95372.75
2022-11-16T10:43:14.852Z,95374.34
2022-11-16T10:45:53.078Z,95376.97
2022-11-16T10:48:37.243Z,95377.22
2022-11-16T10:51:06.687Z,95369.22
2022-11-16T10:53:37.814Z,95365.00
2022-11-16T10:56:21.999Z,95359.66
2022-11-16T10:58:53.949Z,95353.59
2022-11-16T11:01:38.399Z,95357.63
2022-11-16T11:04:20.755Z,95354.47
2022-11-16T11:06:52.479Z,95358.13
2022-11-16T11:09:28.562Z,95349.44
2022-11-16T11:12:19.791Z,95351.03
2022-11-16T11:15:05.847Z,95352.66
2022-11-16T11:17:37.318Z,95351.06
2022-11-16T11:20:09.037Z,95346.34
2022-11-16T11:22:44.919Z,95342.13
2022-11-16T11:25:23.469Z,95350.31
2022-11-16T11:27:53.564Z,95335.22
2022-11-16T11:30:22.923Z,95342.38
2022-11-16T11:32:53.435Z,95338.94
2022-11-16T11:35:27.346Z,95339.19
2022-11-16T11:38:02.163Z,95329.41
2022-11-16T11:40:33.545Z,95343.97
2022-11-16T11:43:04.169Z,95345.78
2022-11-16T11:45:39.917Z,95341.56
2022-11-16T11:48:30.279Z,95354.31
2022-11-16T11:51:03.975Z,95342.38
2022-11-16T11:53:46.376Z,95352.44
2022-11-16T11:56:16.087Z,95350.84
2022-11-16T11:58:45.205Z,95339.47
2022-11-16T12:01:46.909Z,95332.81
2022-11-16T12:04:52.978Z,95332.81
2022-11-16T12:07:37.544Z,95329.38
2022-11-16T12:10:18.890Z,95330.47
2022-11-16T12:13:01.087Z,95330.44
2022-11-16T12:15:46.700Z,95327.28
2022-11-16T12:18:33.883Z,95321.97
2022-11-16T12:21:14.108Z,95327.28
2022-11-16T12:24:10.849Z,95318.78
2022-11-16T12:26:52.861Z,95319.06
2022-11-16T12:29:27.383Z,95325.41
2022-11-16T12:32:31.084Z,95321.44
2022-11-16T12:35:24.713Z,95316.44
2022-11-16T12:38:04.912Z,95320.91
2022-11-16T12:40:50.458Z,95318.81
2022-11-16T12:43:29.917Z,95315.59
2022-11-16T12:46:12.709Z,95304.75
2022-11-16T12:49:24.285Z,95310.06
2022-11-16T12:52:09.217Z,95307.66
2022-11-16T12:58:08.510Z,95302.63
2022-11-16T13:00:51.175Z,95296.81
2022-11-16T13:03:27.821Z,95299.19
2022-11-16T13:06:01.457Z,95294.97
2022-11-16T13:08:49.635Z,95285.94
2022-11-16T13:11:23.877Z,95289.41
2022-11-16T13:13:59.265Z,95290.75
2022-11-16T13:16:28.852Z,95290.47
2022-11-16T13:18:59.134Z,95294.97
2022-11-16T13:21:39.320Z,95282.50
2022-11-16T13:24:35.662Z,95290.44
2022-11-16T13:27:23.979Z,95284.34
2022-11-16T13:30:00.435Z,95276.94
2022-11-16T13:32:46.039Z,95278.50
2022-11-16T13:35:17.497Z,95277.97
2022-11-16T13:37:48.167Z,95280.34
2022-11-16T13:40:34.689Z,95280.34
2022-11-16T13:43:22.651Z,95284.84
2022-11-16T13:46:17.905Z,95284.84
2022-11-16T13:48:56.043Z,95277.97
2022-11-16T13:51:24.636Z,95277.19
2022-11-16T13:56:50.890Z,95271.41
2022-11-16T13:59:27.312Z,95263.16
2022-11-16T14:02:07.433Z,95258.41
2022-11-16T14:04:57.919Z,95258.41
2022-11-16T14:07:36.077Z,95253.09
2022-11-16T14:10:07.838Z,95249.38
2022-11-16T14:12:58.304Z,95265.25
2022-11-16T14:15:34.371Z,95255.75
2022-11-16T14:18:37.023Z,95257.34
2022-11-16T14:21:17.273Z,95255.75
2022-11-16T14:24:02.505Z,95238.53
2022-11-16T14:26:45.870Z,95239.84
2022-11-16T14:29:38.109Z,95232.19
2022-11-16T14:32:21.680Z,95230.34
2022-11-16T14:34:52.312Z,95220.53
2022-11-16T14:37:34.421Z,95221.56
2022-11-16T14:40:08.012Z,95227.69
2022-11-16T14:43:09.933Z,95222.13
2022-11-16T14:45:40.085Z,95218.16
2022-11-16T14:48:17.935Z,95214.75
2022-11-16T14:51:05.414Z,95225.31
2022-11-16T14:53:53.800Z,95229.31
2022-11-16T14:56:22.748Z,95216.84
2022-11-16T14:58:56.531Z,95221.13
2022-11-16T15:01:28.832Z,95223.75
2022-11-16T15:04:05.323Z,95222.44
2022-11-16T15:06:49.231Z,95225.34
2022-11-16T15:09:25.408Z,95230.66
2022-11-16T15:12:11.601Z,95232.50
2022-11-16T15:14:51.786Z,95233.53
2022-11-16T15:17:26.122Z,95228.25
2022-11-16T15:20:00.421Z,95228.53
2022-11-16T15:22:32.027Z,95222.69
2022-11-16T15:25:02.211Z,95229.56
2022-11-16T15:27:38.421Z,95220.56
2022-11-16T15:30:18.071Z,95218.41
2022-11-16T15:32:48.699Z,95209.72
2022-11-16T15:35:23.550Z,95212.88
2022-11-16T15:38:06.563Z,95198.59
2022-11-16T15:40:36.111Z,95195.66
2022-11-16T15:43:06.856Z,95194.06
2022-11-16T15:45:37.057Z,95204.66
2022-11-16T15:48:06.373Z,95215.50
2022-11-16T15:50:35.865Z,95226.84
2022-11-16T15:53:04.796Z,95226.28
2022-11-16T15:55:40.182Z,95214.84
2022-11-16T15:58:15.914Z,95205.59
2022-11-16T16:00:48.238Z,95198.16
2022-11-16T16:03:24.052Z,95199.19
2022-11-16T16:05:54.734Z,95194.41
2022-11-16T16:08:34.577Z,95188.53
2022-11-16T16:11:10.729Z,95199.22
2022-11-16T16:13:42.570Z,95195.97
2022-11-16T16:16:30.386Z,95198.88
2022-11-16T16:19:05.123Z,95195.50
2022-11-16T16:21:46.894Z,95198.13
2022-11-16T16:24:39.347Z,95194.66
2022-11-16T16:27:13.917Z,95195.44
2022-11-16T16:29:42.228Z,95195.94
2022-11-16T16:32:26.001Z,95195.38
2022-11-16T16:34:55.545Z,95197.44
2022-11-16T16:37:27.952Z,95189.75
2022-11-16T16:39:56.073Z,95186.81
2022-11-16T16:42:24.542Z,95189.41
2022-11-16T16:44:54.261Z,95186.00
2022-11-16T16:47:22.364Z,95184.72
2022-11-16T16:49:50.742Z,95183.66
2022-11-16T16:52:19.216Z,95181.00
2022-11-16T16:54:48.777Z,95170.66
2022-11-16T16:57:18.272Z,95161.91
2022-11-16T16:59:48.359Z,95162.97
2022-11-16T17:02:17.268Z,95164.31
2022-11-16T17:04:46.779Z,95161.19
2022-11-16T17:07:15.345Z,95161.75
2022-11-16T17:09:43.846Z,95157.81
2022-11-16T17:12:13.497Z,95164.91
2022-11-16T17:14:41.670Z,95161.03
2022-11-16T17:17:10.158Z,95159.16
2022-11-16T17:19:38.399Z,95149.94
2022-11-16T17:22:06.570Z,95150.50
2022-11-16T17:24:36.114Z,95150.50
2022-11-16T17:27:04.703Z,95150.78
2022-11-16T17:29:34.207Z,95150.78
2022-11-16T17:32:02.431Z,95155.03
2022-11-16T17:34:31.299Z,95147.38
2022-11-16T17:36:59.486Z,95153.13
2022-11-16T17:39:27.606Z,95153.63
2022-11-16T17:41:55.706Z,95147.84
2022-11-16T17:44:23.873Z,95145.22
2022-11-16T17:46:53.445Z,95147.59
2022-11-16T17:49:21.634Z,95139.94
2022-11-16T17:51:49.837Z,95134.66
2022-11-16T17:54:17.988Z,95139.19
2022-11-16T17:56:46.085Z,95135.72
2022-11-16T17:59:14.180Z,95133.09
2022-11-16T18:01:42.509Z,95132.84
2022-11-16T18:04:12.087Z,95128.34
2022-11-16T18:06:40.252Z,95130.47
2022-11-16T18:09:08.402Z,95125.44
2022-11-16T18:11:38.810Z,95135.66
2022-11-16T18:14:07.371Z,95124.25
2022-11-16T18:16:36.206Z,95114.50
2022-11-16T18:19:06.956Z,95118.97
2022-11-16T18:21:42.252Z,95111.31
2022-11-16T18:24:10.942Z,95109.16
2022-11-16T18:26:40.248Z,95109.16
2022-11-16T18:29:12.283Z,95096.72
2022-11-16T18:31:40.466Z,95089.34
2022-11-16T18:34:08.603Z,95074.56
2022-11-16T18:36:36.914Z,95078.56
2022-11-16T18:39:06.708Z,95065.88
2022-11-16T18:41:35.068Z,95069.84
2022-11-16T18:44:03.873Z,95059.78
2022-11-16T18:46:33.822Z,95056.91
2022-11-16T18:49:02.006Z,95055.84
2022-11-16T18:51:31.911Z,95053.41
2022-11-16T18:54:00.052Z,95047.03
2022-11-16T18:56:29.729Z,95054.41
2022-11-16T18:58:57.934Z,95051.22
2022-11-16T19:01:27.763Z,95045.38
2022-11-16T19:03:57.270Z,95042.34
2022-11-16T19:06:25.752Z,95052.31
2022-11-16T19:08:59.658Z,95063.63
2022-11-16T19:11:29.910Z,95063.56
2022-11-16T19:14:01.089Z,95058.50
2022-11-16T19:16:29.318Z,95060.53
2022-11-16T19:18:57.608Z,95060.25
2022-11-16T19:21:26.452Z,95055.66
2022-11-16T19:23:56.678Z,95060.50
2022-11-16T19:26:28.012Z,95062.38
2022-11-16T19:28:57.569Z,95056.50
2022-11-16T19:31:28.653Z,95057.59
2022-11-16T19:33:58.655Z,95057.81
2022-11-16T19:36:28.501Z,95063.63
2022-11-16T19:38:56.837Z,95069.66
2022-11-16T19:41:26.335Z,95078.97
2022-11-16T19:43:59.715Z,95078.84
2022-11-16T19:46:29.406Z,95082.53
2022-11-16T19:48:58.327Z,95089.63
2022-11-16T19:51:28.642Z,95077.75
2022-11-16T19:53:57.259Z,95077.44
2022-11-16T19:56:25.960Z,95080.78
2022-11-16T19:58:54.832Z,95091.06
2022-11-16T20:01:28.026Z,95102.09
2022-11-16T20:03:58.797Z,95093.56
2022-11-16T20:06:31.102Z,95091.94
2022-11-16T20:09:08.400Z,95074.00
2022-11-16T20:11:39.216Z,95052.59
2022-11-16T20:14:09.592Z,95042.31
2022-11-16T20:16:41.779Z,95024.91
2022-11-16T20:19:11.201Z,95034.63
2022-11-16T20:21:41.863Z,95027.34
2022-11-16T20:24:13.455Z,95029.47
2022-11-16T20:26:44.614Z,95024.50
2022-11-16T20:29:13.828Z,95021.34
2022-11-16T20:31:45.336Z,95019.19
2022-11-16T20:34:16.248Z,95025.00
2022-11-16T20:36:46.397Z,95023.66
2022-11-16T20:39:16.393Z,95038.09
2022-11-16T20:41:44.981Z,95036.03
2022-11-16T20:44:17.691Z,95035.22
2022-11-16T20:46:47.346Z,95029.72
2022-11-16T20:49:15.902Z,95030.69
2022-11-16T20:51:46.792Z,95025.88
2022-11-16T20:54:15.040Z,95018.31
2022-11-16T20:56:44.427Z,95008.50
2022-11-16T20:59:12.727Z,95004.81
2022-11-16T21:01:43.375Z,94999.56
2022-11-16T21:04:12.945Z,94996.19
2022-11-16T21:06:41.220Z,94990.56
2022-11-16T21:09:12.352Z,94985.16
2022-11-16T21:11:54.382Z,94988.00
2022-11-16T21:14:23.744Z,94997.25
2022-11-16T21:16:51.919Z,94996.44
2022-11-16T21:19:21.584Z,94993.94
2022-11-16T21:21:49.710Z,94994.22
2022-11-16T21:24:17.785Z,94990.94
2022-11-16T21:26:45.898Z,94984.47
2022-11-16T21:29:14.131Z,94987.50
2022-11-16T21:31:42.287Z,94985.69
2022-11-16T21:34:10.491Z,94988.25
2022-11-16T21:36:40.066Z,94975.06
2022-11-16T21:39:08.157Z,94979.31
2022-11-16T21:41:36.422Z,94983.00
2022-11-16T21:44:04.552Z,94976.69
2022-11-16T21:46:32.707Z,94980.41
2022-11-16T21:49:00.978Z,94979.13
2022-11-16T21:51:29.190Z,94972.00
2022-11-16T21:53:58.676Z,94975.72
2022-11-16T21:56:27.455Z,94980.06
2022-11-16T21:58:55.998Z,94984.75
2022-11-16T22:01:25.217Z,94993.13
2022-11-16T22:04:07.357Z,94991.59
2022-11-16T22:06:53.587Z,94978.53
2022-11-16T22:09:23.544Z,94974.69
2022-11-16T22:11:51.747Z,94975.97
2022-11-16T22:14:19.845Z,94970.19
2022-11-16T22:16:47.991Z,94959.41
2022-11-16T22:19:16.181Z,94964.66
2022-11-16T22:21:44.321Z,94959.69
2022-11-16T22:24:12.510Z,94961.03
2022-11-16T22:26:42.318Z,94960.78
2022-11-16T22:29:10.524Z,94952.41
2022-11-16T22:31:38.721Z,94948.72
2022-11-16T22:34:07.034Z,94958.22
2022-11-16T22:36:35.422Z,94946.03
2022-11-16T22:39:03.504Z,94944.81
2022-11-16T22:41:31.664Z,94941.66
2022-11-16T22:44:01.105Z,94941.97
2022-11-16T22:46:29.689Z,94937.00
2022-11-16T22:48:57.879Z,94946.75
2022-11-16T22:51:28.429Z,94931.75
2022-11-16T22:53:58.675Z,94926.97
2022-11-16T22:56:27.791Z,94926.69
2022-11-16T22:58:56.307Z,94933.03
2022-11-16T23:01:25.979Z,94925.94
2022-11-16T23:03:54.105Z,94930.44
2022-11-16T23:06:22.282Z,94931.78
2022-11-16T23:08:50.520Z,94936.31
2022-11-16T23:11:38.309Z,94930.00
2022-11-16T23:14:26.163Z,94924.72
2022-11-16T23:16:55.795Z,94920.72
2022-11-16T23:19:42.203Z,94931.59
2022-11-16T23:22:32.180Z,94916.84
2022-11-16T23:25:18.064Z,94913.66
2022-11-16T23:27:54.845Z,94921.81
2022-11-16T23:30:23.169Z,94915.75
2022-11-16T23:32:52.996Z,94901.84
2022-11-16T23:35:21.677Z,94897.63
2022-11-16T23:37:58.275Z,94894.00
2022-11-16T23:40:29.056Z,94894.19
2022-11-16T23:43:15.673Z,94878.97
2022-11-16T23:45:44.749Z,94858.91
2022-11-16T23:48:17.003Z,94861.53
2022-11-16T23:50:46.994Z,94848.94
2022-11-16T23:53:15.663Z,94838.94
2022-11-16T23:55:43.766Z,94824.47
2022-11-16T23:58:15.394Z,94826.06
